Sopelana, Spain
Current Conditions -  °F | °C
As of 9:00 PM on Sunday 25 Jan 2015 (Local Time) from LEBB Reporting Station
Broken Clouds Broken Clouds  
Wind Chill: 43°   Ceiling: 5500
Heat Index: 43°   Visibility: 6mi
Dew Point: 39°   Wind: 3mph
Humidity: 87%   Direction: 110°ESE
Pressure: 30.56"   Gusts: NA
Location:  43.38°N, 2.98°W
Report Text: LEBB 252000Z 11003KT 070V150 9999 FEW030 SCT040 BKN055 06/04 Q1035 NOSIG
Loading
Personal Weather Stations






























Interactive Weather Map New forecast layout! Learn more

10-Day Weather Forecast

Advertisements
Track Severe Weather on mobile